Logo AVAMET
Benvolgut visitant, si us plau, ingressa Recuperar contrasenya
AVAMET paisatges

Callosa de Segura

Dades diàries. Acumulats / Últims 30 dies disponibles

Data Temperatura (°C) Humitat rel. (%) Pressió rel. (hPa) Vent (km/h) Precipitació
Mínima Mitjana Màxima Amplitud
tèrmica
Mínima Mitjana Màxima Mínima Mitjana Màxima Predom. Mitjana Ràfega
màxima
Total
(mm)
Índex-n
Mínima Mitjana Màxima Mínima Mitjana Màxima n
0 a 1
P0 max
mm 5'
Dades mensuals acumulades fins l'últim dia disponible
03/2021 10,1 11,9 13,3 14,4 16,5 17,0 17,2 7,1 50 61 71 1.019 1.023 1.028   4,4 33,8 0,0
Dades anuals acumulades fins l'últim dia disponible
2021 2,9 9,5 17,8 13,6 8,9 18,3 28,6 25,7 6 51 84 1.000 1.017 1.034   4,4 62,8 23,0
Últims 30 dies disponibles
03-03-2021 12,3     14,7     17,2 4,9 50 62 71 1.025 1.027 1.028 SSO 2,8 20,9 0,0
02-03-2021 10,1     13,6     16,5 6,4 53 63 69 1.021 1.024 1.028 SO 2,0 16,1 0,0
01-03-2021 13,3     14,8     17,2 3,9 52 58 62 1.019 1.020 1.022 ESE 8,3 33,8 0,0
28-02-2021 12,5     14,0     16,6 4,1 50 58 63 1.020 1.021 1.023 ESE 7,6 30,6 0,0
27-02-2021 12,2     13,7     17,3 5,1 43 56 65 1.022 1.024 1.027 SE 4,3 17,7 0,0
26-02-2021 13,4     14,4     17,1 3,7 48 58 63 1.027 1.028 1.029 ESE 5,8 22,5 0,0
25-02-2021 10,7     14,0     16,6 5,9 56 63 71 1.027 1.029 1.031 SE 4,5 22,5 0,0
24-02-2021 12,0     14,3     18,1 6,1 50 61 68 1.030 1.032 1.034 S 3,4 22,5 0,0
23-02-2021 9,1     14,1     18,4 9,3 39 52 63 1.024 1.030 1.034 SSO 2,9 24,1 0,0
22-02-2021 11,2     14,7     17,5 6,3 29 39 55 1.008 1.016 1.024 SSO 6,5 40,2 0,0
21-02-2021 11,1     14,5     18,9 7,8 48 61 71 1.002 1.006 1.013 SO 3,2 22,5 0,0
20-02-2021 11,6     13,4     16,4 4,8 57 67 75 1.014 1.017 1.019 ESE 3,5 20,9 0,0
19-02-2021 7,6     13,1     20,4 12,8 48 68 78 1.018 1.019 1.021 SSO 2,2 16,1 0,0
18-02-2021 8,7     13,5     19,7 11,0 38 62 73 1.016 1.018 1.020 S 2,5 14,5 0,0
17-02-2021 8,3     13,3     19,5 11,2 38 59 73 1.020 1.022 1.024 SSE 1,8 16,1 0,0
16-02-2021 8,4     12,7     19,6 11,2 36 58 70 1.024 1.028 1.032 SSO 2,5 17,7 0,0
15-02-2021 11,8     13,9     17,2 5,4 44 59 72 1.032 1.033 1.034 SSO 3,1 17,7 0,3
14-02-2021 8,9     13,9     18,3 9,4 44 61 69 1.024 1.029 1.033 S 3,2 22,5 0,0
13-02-2021 15,1     18,1     23,6 8,5 20 37 61 1.020 1.022 1.025 SSO 6,7 43,5 0,0
12-02-2021 14,4     18,5     23,8 9,4 14 42 63 1.015 1.017 1.020 S 5,4 46,7 0,0
11-02-2021 10,8     17,3     24,6 13,8 32 43 56 1.016 1.017 1.019 OSO 3,1 22,5 0,0
10-02-2021 11,9     17,6     23,0 11,1 14 36 59 1.005 1.009 1.016 SSO 5,3 40,2 0,0
09-02-2021 7,5     12,6     18,3 10,8 39 48 60 1.004 1.007 1.010 SO 2,7 16,1 0,0
08-02-2021 11,1     15,4     19,9 8,8 23 38 53 1.002 1.005 1.008 OSO 5,9 40,2 0,0
07-02-2021 10,4     15,0     18,4 8,0 31 41 55 1.003 1.005 1.007 SO 6,6 35,4 0,0
06-02-2021 9,5     15,8     21,1 11,6 29 49 69 1.000 1.002 1.003 OSO 4,2 29,0 0,0
05-02-2021 10,5     14,7     18,4 7,9 56 68 79 1.000 1.005 1.010 S 3,6 22,5 0,0
04-02-2021 10,1     13,3     16,8 6,7 63 72 83 1.009 1.011 1.013 SSO 2,3 16,1 0,0
03-02-2021 10,9     15,1     21,1 10,2 35 54 64 1.011 1.013 1.014 OSO 2,0 19,3 0,0
02-02-2021 14,0     18,7     24,3 10,3 26 41 60 1.013 1.015 1.017 SO 5,0 49,9 0,0
Últims 13 mesos disponibles
02/2021 7,5 11,1 17,8 15,0 16,4 19,7 25,6 18,1 32 53 72 1.002 1.018 1.033 SSO 4,3 59,5 0,3
01/2021 2,9 7,9 14,9 12,3 8,9 17,2 28,6 25,7 28 47 79 1.003 1.016 1.027 SO 4,5 62,8 22,7
12/2020 2,3 8,8 16,8 13,0 13,5 18,1 23,2 20,9 26 47 68 998 1.015 1.027 OSO 4,6 62,8 5,2
11/2020 7,0 12,7 18,3 15,7 17,4 19,9 22,8 15,8 56 65 75 1.005 1.019 1.028 OSO 3,1 48,3 23,6
10/2020 12,1 13,8 17,6 15,5 16,9 18,9 21,0 8,9 39 51 71 1.011 1.019 1.025 SO 3,7 38,6 0,0
09/2020 15,6 20,2 24,4 25,2 25,5 30,0 34,1 18,5 23 49 63 1.011 1.016 1.022 SSO 4,4 51,5 3,6
08/2020 18,1 23,2 26,3 28,5 28,2 33,7 36,9 18,8 24 51 62 1.002 1.012 1.017 SSO 4,5 37,0 6,6
07/2020 20,9 22,9 24,9 27,8 29,9 32,7 39,1 18,2 43 52 62 1.010 1.014 1.019 SSO 4,6 32,2 1,4
06/2020 15,8 19,8 23,4 25,1 22,9 30,2 34,3 18,5 28 49 66 1.004 1.013 1.020 S 4,8 49,9 34,2
04/2020 9,8 13,4 17,2 17,4 17,4 21,8 28,4 18,6 34 58 73 1.006 1.015 1.025 SSO 4,1 53,1 21,2
03/2020 7,8 11,2 16,6 15,1 11,9 19,5 30,2 22,4 25 59 75 1.008 1.016 1.024 S 4,6 46,7 92,8
02/2020 6,2 10,4 16,8 15,2 16,3 21,4 27,6 21,4 30 60 75 1.017 1.026 1.033 SSO 3,4 61,2 0,2
01/2020 3,8 7,6 15,3 11,9 11,2 17,1 23,3 19,5 46 61 74 1.013 1.025 1.032 SO 3,6 57,9 52,8
Tots els anys disponibles
2019 1,8 14,9 26,0 19,5 13,2 24,8 42,0 40,2 28 58 87 997 1.016 1.032 SSO 4,5 88,5 403,2
Temperatura (°C)
Humitat relativa (%)
Velocitat del vent i ràfega màxima (km/h)
Direcció del vent (°)
Pressió (hPa)
Precipitació (mm)
Nota sobre les dades: s'avisa a l'usuari de la provisionalitat i no oficialitat d'aquestes dades
Logo AVAMET blanc
Web allotjada a Sollutia
Llicència de Creative CommonsLa web d'AVAMET i els seus continguts estan subjectes a una llicència de
Reconeixement - No Comercial - Compartir igual
Avís legal - Política de privacitat - Política de cookies
NOVES ESTACIONS: Sollana - l'Albufera/Tancat de Milia (Soci),  Barx - la Falaguera (Soci), l'Alqueria d'Asnar (Soci), Barx (Soci), Font de la Figuera - El Carrascal, Sagunt - Casc Urbà, Tous & Casinos - Aj. (Inforatge), Alcoi - Círculo Industrial (Soci), Requena - San Antonio (Soci), Beniatjar (Soci), Elx - Carrús (Soci), Castelló de la Plana - Serradal (Soci), Teulada - El Pla (Soci), Dénia - la Xara (Soci) - - -